createdAt,value
2019-02-17T00:00:40.896Z,7.75
2019-02-17T00:01:39.681Z,7.77
2019-02-17T00:02:38.244Z,7.83
2019-02-17T00:03:36.887Z,7.82
2019-02-17T00:04:35.643Z,7.92
2019-02-17T00:05:34.232Z,7.92
2019-02-17T00:06:32.795Z,7.93
2019-02-17T00:07:31.329Z,7.85
2019-02-17T00:08:29.872Z,7.85
2019-02-17T00:09:28.426Z,7.92
2019-02-17T00:10:27.163Z,7.83
2019-02-17T00:11:25.893Z,7.68
2019-02-17T00:12:24.503Z,7.67
2019-02-17T00:13:23.156Z,7.63
2019-02-17T00:14:23.816Z,7.61
2019-02-17T00:15:20.306Z,7.67
2019-02-17T00:16:18.910Z,7.52
2019-02-17T00:17:17.573Z,7.5
2019-02-17T00:18:16.090Z,7.39
2019-02-17T00:19:14.708Z,7.34
2019-02-17T00:20:13.350Z,7.42
2019-02-17T00:21:11.907Z,7.31
2019-02-17T00:22:10.493Z,7.21
2019-02-17T00:23:09.131Z,7.25
2019-02-17T00:24:07.884Z,7.23
2019-02-17T00:25:06.397Z,7.23
2019-02-17T00:26:04.962Z,7.21
2019-02-17T00:27:03.504Z,7.12
2019-02-17T00:28:02.050Z,7.09
2019-02-17T00:29:00.704Z,7.09
2019-02-17T00:29:59.276Z,7.03
2019-02-17T00:30:57.935Z,7.2
2019-02-17T00:31:56.534Z,6.99
2019-02-17T00:32:55.245Z,6.91
2019-02-17T00:33:53.943Z,7.06
2019-02-17T00:34:52.548Z,7.23
2019-02-17T00:35:51.074Z,7.3
2019-02-17T00:36:49.621Z,7.28
2019-02-17T00:37:48.222Z,7.39
2019-02-17T00:38:46.763Z,7.31
2019-02-17T00:39:45.409Z,7.42
2019-02-17T00:40:43.907Z,7.4
2019-02-17T00:41:42.470Z,7.48
2019-02-17T00:42:41.146Z,7.48
2019-02-17T00:43:39.886Z,7.48
2019-02-17T00:44:38.451Z,7.46
2019-02-17T00:45:37.049Z,7.3
2019-02-17T00:46:35.655Z,7.4
2019-02-17T00:47:34.278Z,7.43
2019-02-17T00:48:32.827Z,7.42
2019-02-17T00:49:31.381Z,7.35
2019-02-17T00:50:30.018Z,7.2
2019-02-17T00:51:28.553Z,7.12
2019-02-17T00:52:27.234Z,7.21
2019-02-17T00:53:26.274Z,7.23
2019-02-17T00:54:24.864Z,7.05
2019-02-17T00:55:23.471Z,7.05
2019-02-17T00:56:22.032Z,7.05
2019-02-17T00:57:20.621Z,7.17
2019-02-17T00:58:19.297Z,7.1
2019-02-17T00:59:17.969Z,7.03
2019-02-17T01:00:16.647Z,6.84
2019-02-17T01:01:15.607Z,6.94
2019-02-17T01:02:14.157Z,7.02
2019-02-17T01:03:12.685Z,7.03
2019-02-17T01:04:11.199Z,7.02
2019-02-17T01:05:09.800Z,6.89
2019-02-17T01:06:08.313Z,6.91
2019-02-17T01:07:06.868Z,7.03
2019-02-17T01:08:05.557Z,7.06
2019-02-17T01:09:04.136Z,7.02
2019-02-17T01:10:02.695Z,7.13
2019-02-17T01:11:01.407Z,7.21
2019-02-17T01:11:59.960Z,7.32
2019-02-17T01:12:58.510Z,7.3
2019-02-17T01:13:57.094Z,7.42
2019-02-17T01:14:55.717Z,7.23
2019-02-17T01:15:54.239Z,7.02
2019-02-17T01:16:52.795Z,7.07
2019-02-17T01:17:51.411Z,6.95
2019-02-17T01:18:49.984Z,6.89
2019-02-17T01:19:48.520Z,7.02
2019-02-17T01:20:47.240Z,7.03
2019-02-17T01:21:45.865Z,6.94
2019-02-17T01:22:44.407Z,6.89
2019-02-17T01:23:43.006Z,6.81
2019-02-17T01:24:41.632Z,6.64
2019-02-17T01:25:40.148Z,6.69
2019-02-17T01:26:38.711Z,6.74
2019-02-17T01:27:37.455Z,6.81
2019-02-17T01:28:35.978Z,7.02
2019-02-17T01:29:34.870Z,6.97
2019-02-17T01:30:33.467Z,6.88
2019-02-17T01:31:32.065Z,6.97
2019-02-17T01:32:30.697Z,7.06
2019-02-17T01:33:29.324Z,7.06
2019-02-17T01:34:28.069Z,7.02
2019-02-17T01:35:26.661Z,6.98
2019-02-17T01:36:25.290Z,6.97
2019-02-17T01:37:23.864Z,7.06
2019-02-17T01:38:22.544Z,7.21
2019-02-17T01:39:21.153Z,7.27
2019-02-17T01:40:19.740Z,7.23
2019-02-17T01:41:18.342Z,7.32
2019-02-17T01:42:17.050Z,7.32
2019-02-17T01:43:15.607Z,7.31
2019-02-17T01:44:14.147Z,7.13
2019-02-17T01:45:12.695Z,7.13
2019-02-17T01:46:11.258Z,7.12
2019-02-17T01:47:09.808Z,7.02
2019-02-17T01:48:08.358Z,6.85
2019-02-17T01:49:06.881Z,6.85
2019-02-17T01:50:05.532Z,6.73
2019-02-17T01:51:04.093Z,6.73
2019-02-17T01:52:02.619Z,6.8
2019-02-17T01:53:01.328Z,6.92
2019-02-17T01:54:00.023Z,7.03
2019-02-17T01:54:58.595Z,6.81
2019-02-17T01:55:57.151Z,6.87
2019-02-17T01:56:55.887Z,6.91
2019-02-17T01:57:54.441Z,6.91
2019-02-17T01:58:53.089Z,6.84
2019-02-17T01:59:51.692Z,6.87
2019-02-17T02:00:50.292Z,6.84
2019-02-17T02:01:48.803Z,6.79
2019-02-17T02:02:47.531Z,6.8
2019-02-17T02:03:46.103Z,6.8
2019-02-17T02:04:44.637Z,6.88
2019-02-17T02:05:43.351Z,6.88
2019-02-17T02:06:42.021Z,6.77
2019-02-17T02:07:40.571Z,6.74
2019-02-17T02:08:39.197Z,6.74
2019-02-17T02:09:37.759Z,6.8
2019-02-17T02:10:36.310Z,6.81
2019-02-17T02:11:34.908Z,6.87
2019-02-17T02:12:33.582Z,7.03
2019-02-17T02:13:32.246Z,7.12
2019-02-17T02:14:30.814Z,7.1
2019-02-17T02:15:29.485Z,7.02
2019-02-17T02:16:28.034Z,7.03
2019-02-17T02:17:26.579Z,7.03
2019-02-17T02:18:25.108Z,7.03
2019-02-17T02:19:23.782Z,7.06
2019-02-17T02:20:22.272Z,7.15
2019-02-17T02:21:20.836Z,7.07
2019-02-17T02:22:19.419Z,7.2
2019-02-17T02:23:17.997Z,7.25
2019-02-17T02:24:16.596Z,7.1
2019-02-17T02:25:15.193Z,7.2
2019-02-17T02:26:13.821Z,7.2
2019-02-17T02:27:12.422Z,7.02
2019-02-17T02:28:11.202Z,6.84
2019-02-17T02:29:09.841Z,6.95
2019-02-17T02:30:08.505Z,6.97
2019-02-17T02:31:07.012Z,6.89
2019-02-17T02:32:06.056Z,6.91
2019-02-17T02:33:04.599Z,6.92
2019-02-17T02:34:03.293Z,6.91
2019-02-17T02:35:01.987Z,7.03
2019-02-17T02:36:01.059Z,6.97
2019-02-17T02:36:59.761Z,6.94
2019-02-17T02:37:58.330Z,6.84
2019-02-17T02:38:56.907Z,6.88
2019-02-17T02:39:55.563Z,6.8
2019-02-17T02:40:54.167Z,6.81
2019-02-17T02:41:52.728Z,6.87
2019-02-17T02:42:51.293Z,6.8
2019-02-17T02:43:49.855Z,6.81
2019-02-17T02:44:48.734Z,6.76
2019-02-17T02:45:47.116Z,6.73
2019-02-17T02:46:45.928Z,6.56
2019-02-17T02:47:44.471Z,6.64
2019-02-17T02:48:43.057Z,6.56
2019-02-17T02:49:41.812Z,6.48
2019-02-17T02:50:40.420Z,6.49
2019-02-17T02:51:38.939Z,6.51
2019-02-17T02:52:37.604Z,6.58
2019-02-17T02:53:36.170Z,6.41
2019-02-17T02:54:34.804Z,6.38
2019-02-17T02:55:33.621Z,6.28
2019-02-17T02:56:32.148Z,6.34
2019-02-17T02:57:30.724Z,6.34
2019-02-17T02:58:29.359Z,6.41
2019-02-17T02:59:27.979Z,6.37
2019-02-17T03:00:26.543Z,6.37
2019-02-17T03:01:25.212Z,6.22
2019-02-17T03:02:23.876Z,6.43
2019-02-17T03:03:22.420Z,6.37
2019-02-17T03:04:20.998Z,6.37
2019-02-17T03:05:19.750Z,6.37
2019-02-17T03:06:18.327Z,6.4
2019-02-17T03:07:16.864Z,6.33
2019-02-17T03:08:15.743Z,6.34
2019-02-17T03:09:14.300Z,6.44
2019-02-17T03:10:12.859Z,6.54
2019-02-17T03:11:11.508Z,6.48
2019-02-17T03:12:10.248Z,6.4
2019-02-17T03:13:08.913Z,6.34
2019-02-17T03:14:07.509Z,6.31
2019-02-17T03:15:06.110Z,6.38
2019-02-17T03:16:04.662Z,6.43
2019-02-17T03:17:03.253Z,6.4
2019-02-17T03:18:01.877Z,6.54
2019-02-17T03:19:00.438Z,6.56
2019-02-17T03:19:58.991Z,6.51
2019-02-17T03:22:33.038Z,6.43
2019-02-17T03:23:31.615Z,6.31
2019-02-17T03:24:30.149Z,6.25
2019-02-17T03:25:29.049Z,6.31
2019-02-17T03:26:27.715Z,6.27
2019-02-17T03:27:26.269Z,6.17
2019-02-17T03:28:24.840Z,6.27
2019-02-17T03:29:23.473Z,6.08
2019-02-17T03:30:22.016Z,6.19
2019-02-17T03:31:20.596Z,6.15
2019-02-17T03:32:19.149Z,6.15
2019-02-17T03:33:17.788Z,6.27
2019-02-17T03:34:16.439Z,6.3
2019-02-17T03:35:15.056Z,6.31
2019-02-17T03:36:13.793Z,6.33
2019-02-17T03:37:12.315Z,6.27
2019-02-17T03:38:10.926Z,6.27
2019-02-17T03:39:09.559Z,6.3
2019-02-17T03:40:08.170Z,6.28
2019-02-17T03:41:06.709Z,6.25
2019-02-17T03:42:05.293Z,6.25
2019-02-17T03:43:03.810Z,6.21
2019-02-17T03:44:02.369Z,6.28
2019-02-17T03:45:01.068Z,6.34
2019-02-17T03:45:59.866Z,6.31
2019-02-17T03:46:58.406Z,6.11
2019-02-17T03:47:57.018Z,6.19
2019-02-17T03:48:55.744Z,6.12
2019-02-17T03:49:54.302Z,6.18
2019-02-17T03:50:52.846Z,6.25
2019-02-17T03:51:51.373Z,6.34
2019-02-17T03:52:49.966Z,6.28
2019-02-17T03:53:48.504Z,6.41
2019-02-17T03:54:47.067Z,6.48
2019-02-17T03:55:45.660Z,6.33
2019-02-17T03:56:44.216Z,6.25
2019-02-17T03:57:42.794Z,6.3
2019-02-17T03:58:41.741Z,6.36
2019-02-17T03:59:40.319Z,6.38
2019-02-17T04:00:38.881Z,6.54
2019-02-17T04:01:37.484Z,6.44
2019-02-17T04:02:36.026Z,6.58
2019-02-17T04:03:34.650Z,6.4
2019-02-17T04:04:33.245Z,6.41
2019-02-17T04:05:31.854Z,6.33
2019-02-17T04:06:30.399Z,6.3
2019-02-17T04:07:29.003Z,6.27
2019-02-17T04:08:27.887Z,6.33
2019-02-17T04:09:26.393Z,6.28
2019-02-17T04:10:24.950Z,6.21
2019-02-17T04:11:23.710Z,6.31
2019-02-17T04:12:22.366Z,6.28
2019-02-17T04:13:20.945Z,6.21
2019-02-17T04:14:19.572Z,6.12
2019-02-17T04:15:18.254Z,6.09
2019-02-17T04:16:17.014Z,6
2019-02-17T04:17:15.803Z,5.96
2019-02-17T04:18:14.395Z,6.15
2019-02-17T04:19:13.159Z,6.25
2019-02-17T04:20:11.826Z,6.17
2019-02-17T04:21:10.490Z,6.14
2019-02-17T04:22:09.095Z,6.08
2019-02-17T04:23:07.799Z,6.14
2019-02-17T04:24:06.339Z,6.21
2019-02-17T04:25:05.005Z,6.17
2019-02-17T04:26:03.798Z,6.22
2019-02-17T04:27:02.320Z,6.31
2019-02-17T04:28:00.920Z,6.34
2019-02-17T04:28:59.699Z,6.36
2019-02-17T04:29:58.310Z,6.27
2019-02-17T04:30:56.855Z,6.25
2019-02-17T04:31:55.440Z,6.15
2019-02-17T04:32:54.566Z,6.25
2019-02-17T04:33:53.228Z,6.36
2019-02-17T04:34:51.861Z,6.19
2019-02-17T04:35:50.449Z,6.21
2019-02-17T04:36:48.942Z,6.19
2019-02-17T04:37:47.519Z,6.09
2019-02-17T04:38:46.177Z,6.04
2019-02-17T04:39:44.673Z,6.12
2019-02-17T04:40:43.214Z,5.97
2019-02-17T04:41:41.819Z,6.01
2019-02-17T04:42:40.354Z,6.09
2019-02-17T04:43:38.978Z,6.18
2019-02-17T04:44:37.844Z,6.08
2019-02-17T04:45:36.416Z,6.31
2019-02-17T04:46:35.022Z,6.22
2019-02-17T04:47:33.771Z,6.22
2019-02-17T04:48:32.295Z,6.27
2019-02-17T04:49:30.872Z,6.22
2019-02-17T04:50:29.530Z,6.21
2019-02-17T04:51:28.178Z,6.18
2019-02-17T04:52:26.700Z,6.11
2019-02-17T04:53:25.312Z,6.14
2019-02-17T04:54:24.091Z,6.08
2019-02-17T04:55:22.607Z,6.18
2019-02-17T04:56:21.312Z,6.25
2019-02-17T04:57:19.898Z,6.28
2019-02-17T04:58:18.481Z,6.43
2019-02-17T04:59:17.025Z,6.3
2019-02-17T05:00:15.641Z,6.43
2019-02-17T05:01:14.207Z,6.41
2019-02-17T05:02:12.755Z,6.37
2019-02-17T05:03:11.441Z,6.3
2019-02-17T05:04:10.032Z,6.22
2019-02-17T05:05:08.560Z,6.18
2019-02-17T05:06:07.332Z,6.25
2019-02-17T05:07:06.088Z,6.37
2019-02-17T05:08:04.638Z,6.25
2019-02-17T05:09:03.167Z,6.21
2019-02-17T05:10:01.892Z,6.21
2019-02-17T05:11:00.454Z,6.31
2019-02-17T05:11:58.991Z,6.27
2019-02-17T05:12:57.564Z,6.17
2019-02-17T05:13:56.173Z,6.11
2019-02-17T05:14:54.781Z,6.11
2019-02-17T05:15:53.427Z,5.96
2019-02-17T05:16:52.058Z,5.89
2019-02-17T05:17:50.687Z,5.85
2019-02-17T05:18:49.194Z,5.85
2019-02-17T05:19:48.020Z,5.85
2019-02-17T05:20:46.952Z,5.83
2019-02-17T05:21:46.240Z,5.9
2019-02-17T05:22:44.980Z,5.75
2019-02-17T05:23:43.601Z,5.65
2019-02-17T05:24:42.231Z,5.61
2019-02-17T05:25:40.763Z,5.49
2019-02-17T05:26:39.358Z,5.49
2019-02-17T05:27:37.941Z,5.71
2019-02-17T05:28:36.631Z,5.64
2019-02-17T05:29:35.503Z,5.63
2019-02-17T05:30:34.087Z,5.65
2019-02-17T05:31:32.651Z,5.82
2019-02-17T05:32:32.038Z,5.74
2019-02-17T05:33:30.617Z,5.81
2019-02-17T05:34:29.293Z,5.61
2019-02-17T05:35:27.935Z,5.49
2019-02-17T05:36:26.508Z,5.58
2019-02-17T05:37:25.214Z,5.54
2019-02-17T05:38:23.899Z,5.45
2019-02-17T05:39:22.454Z,5.42
2019-02-17T05:40:21.229Z,5.48
2019-02-17T05:41:19.912Z,5.46
2019-02-17T05:42:18.518Z,5.51
2019-02-17T05:43:17.071Z,5.53
2019-02-17T05:44:15.619Z,5.53
2019-02-17T05:45:14.157Z,5.35
2019-02-17T05:46:12.757Z,5.39
2019-02-17T05:47:11.490Z,5.38
2019-02-17T05:48:10.179Z,5.33
2019-02-17T05:49:08.756Z,5.31
2019-02-17T05:50:07.442Z,5.28
2019-02-17T05:51:06.221Z,5.21
2019-02-17T05:52:04.828Z,5.22
2019-02-17T05:53:03.382Z,5.24
2019-02-17T05:54:01.959Z,5.2
2019-02-17T05:55:00.491Z,5.25
2019-02-17T05:55:59.053Z,5.21
2019-02-17T05:56:57.671Z,5.35
2019-02-17T05:57:56.318Z,5.35
2019-02-17T05:58:54.856Z,5.33
2019-02-17T05:59:53.654Z,5.43
2019-02-17T06:01:02.961Z,5.22
2019-02-17T06:01:50.880Z,5.35
2019-02-17T06:02:49.420Z,5.46
2019-02-17T06:03:48.125Z,5.33
2019-02-17T06:04:46.808Z,5.35
2019-02-17T06:05:45.351Z,5.2
2019-02-17T06:06:44.024Z,5.3
2019-02-17T06:07:42.624Z,5.39
2019-02-17T06:08:41.270Z,5.48
2019-02-17T06:09:40.051Z,5.35
2019-02-17T06:10:38.597Z,5.38
2019-02-17T06:11:37.283Z,5.33
2019-02-17T06:12:35.977Z,5.39
2019-02-17T06:13:34.584Z,5.42
2019-02-17T06:14:33.381Z,5.33
2019-02-17T06:15:32.082Z,5.3
2019-02-17T06:16:30.703Z,5.28
2019-02-17T06:17:29.231Z,5.27
2019-02-17T06:18:27.965Z,5.33
2019-02-17T06:19:26.629Z,5.36
2019-02-17T06:20:25.416Z,5.4
2019-02-17T06:21:24.241Z,5.49
2019-02-17T06:22:22.887Z,5.6
2019-02-17T06:23:22.505Z,5.6
2019-02-17T06:24:20.994Z,5.72
2019-02-17T06:25:19.762Z,5.76
2019-02-17T06:26:18.395Z,5.68
2019-02-17T06:27:17.014Z,5.74
2019-02-17T06:28:15.689Z,5.64
2019-02-17T06:29:14.311Z,5.83
2019-02-17T06:30:13.106Z,5.85
2019-02-17T06:31:14.614Z,5.99
2019-02-17T06:32:10.584Z,5.94
2019-02-17T06:33:09.244Z,5.89
2019-02-17T06:34:07.923Z,5.99
2019-02-17T06:35:06.714Z,5.86
2019-02-17T06:36:05.288Z,5.81
2019-02-17T06:37:04.074Z,5.78
2019-02-17T06:38:02.624Z,5.81
2019-02-17T06:39:01.617Z,5.67
2019-02-17T06:40:01.001Z,5.65
2019-02-17T06:40:59.954Z,5.74
2019-02-17T06:41:58.613Z,5.68
2019-02-17T06:42:57.363Z,5.85
2019-02-17T06:43:55.947Z,5.85
2019-02-17T06:44:54.761Z,5.76
2019-02-17T06:45:53.368Z,5.67
2019-02-17T06:46:52.257Z,5.65
2019-02-17T06:47:51.135Z,5.71
2019-02-17T06:48:49.881Z,5.81
2019-02-17T06:49:48.427Z,5.83
2019-02-17T06:50:47.071Z,5.72
2019-02-17T06:51:45.817Z,5.74
2019-02-17T06:52:44.377Z,5.81
2019-02-17T06:53:42.943Z,5.9
2019-02-17T06:54:41.485Z,5.96
2019-02-17T06:55:40.125Z,6
2019-02-17T06:56:38.701Z,6.12
2019-02-17T06:57:37.449Z,6.04
2019-02-17T06:58:36.004Z,6.01
2019-02-17T06:59:34.557Z,5.82
2019-02-17T07:00:33.174Z,5.89
2019-02-17T07:01:31.871Z,5.79
2019-02-17T07:02:30.467Z,6.04
2019-02-17T07:03:29.031Z,6.01
2019-02-17T07:04:27.733Z,6.03
2019-02-17T07:05:26.338Z,5.96
2019-02-17T07:06:24.901Z,5.91
2019-02-17T07:07:25.488Z,5.82
2019-02-17T07:08:24.050Z,5.82
2019-02-17T07:09:22.779Z,5.83
2019-02-17T07:10:21.544Z,5.89
2019-02-17T07:11:20.090Z,5.82
2019-02-17T07:12:18.777Z,5.85
2019-02-17T07:13:17.323Z,5.86
2019-02-17T07:14:15.940Z,5.99
2019-02-17T07:15:14.488Z,6.14
2019-02-17T07:16:13.059Z,6.15
2019-02-17T07:17:11.725Z,5.97
2019-02-17T07:18:10.359Z,5.99
2019-02-17T07:19:08.916Z,6.14
2019-02-17T07:20:09.635Z,6.15
2019-02-17T07:21:06.326Z,6.11
2019-02-17T07:22:04.929Z,6.15
2019-02-17T07:24:44.977Z,6.37
2019-02-17T07:25:43.719Z,6.38
2019-02-17T07:26:42.451Z,6.38
2019-02-17T07:27:41.001Z,6.37
2019-02-17T07:28:39.927Z,6.48
2019-02-17T07:29:38.474Z,6.51
2019-02-17T07:30:37.114Z,6.67
2019-02-17T07:31:35.688Z,6.58
2019-02-17T07:32:34.279Z,6.62
2019-02-17T07:33:32.823Z,6.54
2019-02-17T07:34:31.470Z,6.59
2019-02-17T07:35:30.181Z,6.59
2019-02-17T07:36:28.751Z,6.61
2019-02-17T07:37:33.247Z,6.73
2019-02-17T07:38:26.061Z,6.71
2019-02-17T07:39:24.689Z,6.62
2019-02-17T07:40:23.239Z,6.58
2019-02-17T07:41:22.006Z,6.64
2019-02-17T07:42:20.566Z,6.46
2019-02-17T07:43:19.132Z,6.62
2019-02-17T07:44:17.870Z,6.59
2019-02-17T07:45:16.877Z,6.56
2019-02-17T07:46:15.451Z,6.58
2019-02-17T07:47:13.971Z,6.61
2019-02-17T07:49:37.236Z,6.61
2019-02-17T07:50:38.480Z,6.61
2019-02-17T07:51:37.069Z,6.62
2019-02-17T07:52:35.707Z,6.64
2019-02-17T07:53:34.830Z,6.77
2019-02-17T07:54:35.622Z,6.8
2019-02-17T07:55:34.424Z,6.85
2019-02-17T07:56:33.409Z,6.92
2019-02-17T07:57:32.351Z,6.99
2019-02-17T07:58:30.923Z,6.95
2019-02-17T07:59:29.768Z,6.98
2019-02-17T08:00:28.498Z,7.06
2019-02-17T08:01:27.123Z,6.99
2019-02-17T08:02:25.720Z,7.03
2019-02-17T08:03:24.341Z,6.97
2019-02-17T08:04:23.095Z,6.92
2019-02-17T08:05:21.947Z,7.05
2019-02-17T08:06:20.605Z,7.09
2019-02-17T08:07:19.162Z,7.23
2019-02-17T08:08:17.792Z,7.28
2019-02-17T08:09:16.424Z,7.27
2019-02-17T08:10:15.109Z,7.27
2019-02-17T08:11:14.002Z,7.4
2019-02-17T08:12:12.600Z,7.42
2019-02-17T08:13:11.277Z,7.52
2019-02-17T08:14:09.875Z,7.42
2019-02-17T08:15:08.464Z,7.49
2019-02-17T08:16:06.998Z,7.5
2019-02-17T08:17:05.697Z,7.58
2019-02-17T08:18:04.302Z,7.49
2019-02-17T08:19:02.917Z,7.52
2019-02-17T08:20:01.673Z,7.53
2019-02-17T08:21:00.196Z,7.64
2019-02-17T08:21:58.856Z,7.53
2019-02-17T08:22:57.481Z,7.63
2019-02-17T08:23:56.141Z,7.72
2019-02-17T08:24:54.680Z,7.72
2019-02-17T08:25:53.437Z,7.74
2019-02-17T08:26:52.077Z,7.8
2019-02-17T08:27:50.610Z,7.8
2019-02-17T08:28:49.294Z,7.85
2019-02-17T08:29:48.380Z,7.8
2019-02-17T08:30:47.038Z,7.83
2019-02-17T08:31:54.781Z,7.89
2019-02-17T08:32:44.344Z,7.97
2019-02-17T08:33:42.981Z,8.07
2019-02-17T08:34:41.569Z,8.08
2019-02-17T08:35:40.470Z,8.05
2019-02-17T08:36:38.797Z,8.08
2019-02-17T08:37:37.429Z,8.07
2019-02-17T08:38:35.991Z,8.08
2019-02-17T08:39:34.842Z,8.16
2019-02-17T08:40:38.966Z,8.2
2019-02-17T08:41:38.005Z,8.26
2019-02-17T08:42:36.761Z,8.26
2019-02-17T08:43:35.603Z,8.25
2019-02-17T08:44:34.266Z,8.34
2019-02-17T08:45:32.913Z,8.37
2019-02-17T08:46:31.591Z,8.4
2019-02-17T08:47:30.285Z,8.38
2019-02-17T08:48:28.839Z,8.41
2019-02-17T08:49:27.594Z,8.47
2019-02-17T08:50:26.255Z,8.45
2019-02-17T08:51:24.828Z,8.56
2019-02-17T08:52:23.599Z,8.56
2019-02-17T08:53:22.155Z,8.59
2019-02-17T08:54:20.717Z,8.56
2019-02-17T08:55:19.293Z,8.58
2019-02-17T08:56:18.760Z,8.55
2019-02-17T08:57:16.594Z,8.66
2019-02-17T08:58:15.228Z,8.68
2019-02-17T08:59:13.866Z,8.76
2019-02-17T09:00:13.170Z,8.73
2019-02-17T09:01:11.926Z,8.77
2019-02-17T09:02:10.498Z,8.66
2019-02-17T09:03:09.236Z,8.77
2019-02-17T09:04:07.937Z,8.8
2019-02-17T09:05:06.623Z,8.77
2019-02-17T09:06:05.278Z,8.83
2019-02-17T09:07:06.304Z,8.84
2019-02-17T09:08:04.035Z,8.87
2019-02-17T09:09:01.104Z,8.98
2019-02-17T09:09:59.849Z,8.91
2019-02-17T09:10:58.377Z,9.02
2019-02-17T09:11:56.960Z,8.99
2019-02-17T09:12:55.585Z,9.04
2019-02-17T09:13:54.108Z,9.1
2019-02-17T09:14:52.649Z,9.08
2019-02-17T09:15:51.214Z,9.11
2019-02-17T09:16:50.094Z,9.17
2019-02-17T09:17:48.638Z,9.15
2019-02-17T09:18:47.461Z,9.1
2019-02-17T09:19:46.202Z,9.13
2019-02-17T09:20:44.706Z,9.28
2019-02-17T09:21:43.672Z,9.21
2019-02-17T09:22:42.285Z,9.32
2019-02-17T09:23:41.083Z,9.33
2019-02-17T09:24:39.717Z,9.39
2019-02-17T09:25:38.340Z,9.36
2019-02-17T09:26:36.942Z,9.38
2019-02-17T09:27:35.858Z,9.4
2019-02-17T09:28:34.448Z,9.38
2019-02-17T09:29:33.017Z,9.39
2019-02-17T09:30:31.800Z,9.39
2019-02-17T09:31:30.379Z,9.42
2019-02-17T09:32:28.893Z,9.38
2019-02-17T09:33:27.485Z,9.36
2019-02-17T09:34:26.137Z,9.43
2019-02-17T09:35:24.704Z,9.46
2019-02-17T09:36:23.350Z,9.46
2019-02-17T09:37:22.284Z,9.5
2019-02-17T09:38:20.897Z,9.53
2019-02-17T09:39:19.525Z,9.54
2019-02-17T09:40:18.129Z,9.48
2019-02-17T09:41:16.709Z,9.6
2019-02-17T09:42:15.500Z,9.61
2019-02-17T09:43:14.176Z,9.65
2019-02-17T09:44:12.703Z,9.57
2019-02-17T09:47:51.613Z,9.72
2019-02-17T09:48:50.128Z,9.72
2019-02-17T09:49:48.739Z,9.68
2019-02-17T09:50:47.366Z,9.71
2019-02-17T09:51:46.071Z,9.81
2019-02-17T09:52:44.700Z,9.78
2019-02-17T09:55:07.695Z,9.87
2019-02-17T09:56:06.395Z,9.76
2019-02-17T09:57:05.014Z,9.91
2019-02-17T09:58:03.791Z,9.81
2019-02-17T09:59:02.957Z,9.79
2019-02-17T10:00:02.100Z,9.81
2019-02-17T10:23:56.391Z,10.68
2019-02-17T10:24:55.582Z,10.68
2019-02-17T10:25:56.450Z,10.71
2019-02-17T10:26:53.157Z,10.82
2019-02-17T10:27:51.884Z,10.76
2019-02-17T10:28:50.443Z,10.79
2019-02-17T10:29:49.279Z,10.79
2019-02-17T10:30:48.170Z,10.89
2019-02-17T10:31:46.991Z,10.86
2019-02-17T10:32:46.120Z,10.82
2019-02-17T10:33:44.506Z,10.86
2019-02-17T10:34:43.283Z,10.78
2019-02-17T10:35:41.990Z,10.88
2019-02-17T10:36:41.310Z,10.92
2019-02-17T10:37:39.917Z,10.99
2019-02-17T10:38:38.515Z,10.99
2019-02-17T10:41:18.733Z,11.09
2019-02-17T10:42:17.698Z,11.1
2019-02-17T10:43:16.708Z,11.06
2019-02-17T10:44:15.290Z,11.09
2019-02-17T10:45:14.283Z,11.04
2019-02-17T10:46:12.836Z,11.11
2019-02-17T10:47:11.876Z,11.15
2019-02-17T10:48:10.786Z,11.19
2019-02-17T10:49:09.339Z,11.14
2019-02-17T10:50:08.255Z,11.37
2019-02-17T10:51:06.750Z,11.36
2019-02-17T10:52:05.391Z,11.33
2019-02-17T10:53:04.125Z,11.32
2019-02-17T10:54:02.955Z,11.37
2019-02-17T10:55:01.628Z,11.43
2019-02-17T10:57:42.210Z,11.44
2019-02-17T11:00:22.734Z,11.46
2019-02-17T11:01:21.346Z,11.52
2019-02-17T11:02:20.014Z,11.54
2019-02-17T11:32:16.764Z,11.9
2019-02-17T11:33:15.318Z,11.85
2019-02-17T11:34:13.964Z,11.98
2019-02-17T11:39:10.136Z,12.01
2019-02-17T11:40:08.691Z,11.9
2019-02-17T11:41:07.342Z,11.95
2019-02-17T11:42:06.008Z,11.99
2019-02-17T11:44:28.726Z,11.99
2019-02-17T11:45:27.668Z,11.96
2019-02-17T11:46:26.433Z,11.99
2019-02-17T11:47:25.134Z,12.05
2019-02-17T11:48:23.805Z,12.04
2019-02-17T11:49:22.405Z,12.02
2019-02-17T11:50:20.949Z,12.02
2019-02-17T11:51:19.751Z,12.04
2019-02-17T11:52:18.310Z,12.05
2019-02-17T11:53:16.917Z,11.96
2019-02-17T11:54:15.457Z,12.07
2019-02-17T11:55:14.044Z,12.04
2019-02-17T11:56:12.644Z,12.07
2019-02-17T11:57:11.162Z,12.09
2019-02-17T11:58:09.752Z,12.13
2019-02-17T11:59:08.360Z,12.1
2019-02-17T12:00:06.985Z,12.16
2019-02-17T12:01:05.902Z,12.14
2019-02-17T12:02:04.442Z,12.14
2019-02-17T12:03:07.784Z,12.12
2019-02-17T12:04:01.658Z,12.14
2019-02-17T12:05:00.313Z,12.21
2019-02-17T12:07:40.717Z,12.23
2019-02-17T12:08:39.443Z,12.23
2019-02-17T12:09:38.183Z,12.28
2019-02-17T12:10:36.809Z,12.28
2019-02-17T12:13:17.068Z,12.35
2019-02-17T12:15:40.153Z,12.37
2019-02-17T12:19:45.707Z,12.35
2019-02-17T12:21:46.783Z,12.34
2019-02-17T12:22:45.735Z,12.42
2019-02-17T12:23:44.514Z,12.37
2019-02-17T12:24:43.055Z,12.41
2019-02-17T12:25:41.860Z,12.42
2019-02-17T12:26:40.461Z,12.5
2019-02-17T12:27:39.011Z,12.52
2019-02-17T12:28:37.686Z,12.5
2019-02-17T12:29:38.254Z,12.47
2019-02-17T12:30:35.169Z,12.62
2019-02-17T12:31:33.896Z,12.56
2019-02-17T12:34:00.357Z,12.56
2019-02-17T12:34:58.899Z,12.62
2019-02-17T12:37:39.125Z,12.75
2019-02-17T12:38:37.817Z,12.67
2019-02-17T12:39:36.595Z,12.56
2019-02-17T12:40:35.136Z,12.74
2019-02-17T12:41:33.733Z,12.62
2019-02-17T12:42:32.302Z,12.68
2019-02-17T12:43:31.755Z,12.68
2019-02-17T12:44:30.386Z,12.6
2019-02-17T12:45:28.928Z,12.67
2019-02-17T12:46:27.607Z,12.75
2019-02-17T12:47:26.294Z,12.71
2019-02-17T12:48:24.828Z,12.71
2019-02-17T12:49:25.562Z,12.74
2019-02-17T12:52:49.047Z,12.72
2019-02-17T12:53:48.178Z,12.74
2019-02-17T12:54:46.357Z,12.74
2019-02-17T12:55:44.978Z,12.75
2019-02-17T12:56:43.635Z,12.83
2019-02-17T12:57:42.222Z,12.79
2019-02-17T12:58:41.074Z,12.87
2019-02-17T12:59:39.640Z,12.85
2019-02-17T13:00:38.348Z,12.82
2019-02-17T13:01:37.003Z,12.85
2019-02-17T13:02:35.786Z,12.82
2019-02-17T13:05:16.027Z,12.93
2019-02-17T13:06:14.619Z,13
2019-02-17T13:12:59.212Z,12.97
2019-02-17T13:13:57.946Z,13.04
2019-02-17T13:14:56.539Z,13.1
2019-02-17T13:15:55.155Z,13.08
2019-02-17T13:16:53.727Z,13.05
2019-02-17T13:19:34.300Z,13.08
2019-02-17T13:21:14.777Z,13.2
2019-02-17T13:22:13.631Z,13.22
2019-02-17T13:23:13.279Z,13.26
2019-02-17T13:24:11.906Z,13.25
2019-02-17T13:25:10.512Z,13.25
2019-02-17T13:26:10.354Z,13.22
2019-02-17T13:28:50.408Z,13.14
2019-02-17T13:29:49.399Z,13.25
2019-02-17T13:30:47.964Z,13.28
2019-02-17T13:31:46.562Z,13.38
2019-02-17T13:32:45.294Z,13.3
2019-02-17T13:33:44.201Z,13.3
2019-02-17T13:34:42.855Z,13.32
2019-02-17T13:35:41.490Z,13.3
2019-02-17T13:36:40.289Z,13.3
2019-02-17T13:37:38.960Z,13.3
2019-02-17T13:38:37.811Z,13.38
2019-02-17T13:39:36.603Z,13.41
2019-02-17T13:40:35.549Z,13.44
2019-02-17T13:41:34.229Z,13.42
2019-02-17T13:42:32.949Z,13.44
2019-02-17T13:43:32.534Z,13.38
2019-02-17T13:44:30.849Z,13.49
2019-02-17T13:47:11.117Z,13.52
2019-02-17T13:48:09.916Z,13.42
2019-02-17T13:49:08.573Z,13.45
2019-02-17T13:50:07.282Z,13.49
2019-02-17T13:51:06.042Z,13.54
2019-02-17T13:52:04.860Z,13.55
2019-02-17T13:53:11.248Z,13.55
2019-02-17T13:54:02.247Z,13.48
2019-02-17T13:55:00.781Z,13.57
2019-02-17T13:56:01.664Z,13.57
2019-02-17T13:57:00.418Z,13.57
2019-02-17T13:57:59.747Z,13.54
2019-02-17T13:58:58.791Z,13.62
2019-02-17T13:59:58.106Z,13.55
2019-02-17T14:00:56.870Z,13.63
2019-02-17T14:01:55.659Z,13.63
2019-02-17T14:02:56.060Z,13.69
2019-02-17T14:03:55.746Z,13.57
2019-02-17T14:04:54.507Z,13.69
2019-02-17T14:05:56.411Z,13.6
2019-02-17T14:06:56.851Z,13.66
2019-02-17T14:07:57.028Z,13.69
2019-02-17T14:11:38.734Z,13.73
2019-02-17T14:12:38.525Z,13.64
2019-02-17T14:13:47.662Z,13.62
2019-02-17T14:14:45.141Z,13.67
2019-02-17T14:15:43.442Z,13.73
2019-02-17T14:16:42.405Z,13.77
2019-02-17T14:28:14.300Z,13.79
2019-02-17T14:29:13.756Z,13.78
2019-02-17T14:30:12.935Z,13.85
2019-02-17T14:31:13.857Z,13.87
2019-02-17T14:32:12.563Z,13.84
2019-02-17T14:34:11.077Z,14.02
2019-02-17T14:35:10.724Z,13.88
2019-02-17T14:36:11.865Z,13.87
2019-02-17T14:37:13.360Z,13.84
2019-02-17T14:38:11.377Z,13.91
2019-02-17T14:39:11.316Z,13.95
2019-02-17T14:41:45.609Z,14
2019-02-17T14:42:45.036Z,13.95
2019-02-17T14:43:48.148Z,13.99
2019-02-17T14:44:47.329Z,13.99
2019-02-17T14:45:46.211Z,13.91
2019-02-17T14:48:39.316Z,13.97
2019-02-17T14:49:39.076Z,14
2019-02-17T14:50:46.756Z,14
2019-02-17T14:51:49.485Z,14.14
2019-02-17T14:53:53.910Z,14.12
2019-02-17T14:54:54.662Z,14.12
2019-02-17T14:55:53.478Z,14.07